sensor_id;sensor_type;location;lat;lon;timestamp;pressure;altitude;pressure_sealevel;temperature;humidity
46223;BME280;31943;51.410;7.564;2023-07-28T00:01:36;99252.41;;;17.93;79.13
46223;BME280;31943;51.410;7.564;2023-07-28T00:04:02;99258.50;;;17.95;78.64
46223;BME280;31943;51.410;7.564;2023-07-28T00:06:27;99257.69;;;17.93;78.96
46223;BME280;31943;51.410;7.564;2023-07-28T00:08:53;99260.28;;;17.94;78.98
46223;BME280;31943;51.410;7.564;2023-07-28T00:11:19;99257.66;;;17.94;79.11
46223;BME280;31943;51.410;7.564;2023-07-28T00:13:45;99257.56;;;17.97;78.79
46223;BME280;31943;51.410;7.564;2023-07-28T00:16:12;99253.97;;;17.98;78.87
46223;BME280;31943;51.410;7.564;2023-07-28T00:18:38;99247.00;;;17.97;78.95
46223;BME280;31943;51.410;7.564;2023-07-28T00:21:04;99242.66;;;17.95;78.73
46223;BME280;31943;51.410;7.564;2023-07-28T00:23:30;99241.91;;;17.91;78.71
46223;BME280;31943;51.410;7.564;2023-07-28T00:25:56;99248.00;;;17.93;78.83
46223;BME280;31943;51.410;7.564;2023-07-28T00:28:22;99246.34;;;17.91;78.87
46223;BME280;31943;51.410;7.564;2023-07-28T00:30:49;99248.97;;;17.91;79.09
46223;BME280;31943;51.410;7.564;2023-07-28T00:33:16;99245.50;;;17.90;79.21
46223;BME280;31943;51.410;7.564;2023-07-28T00:35:42;99244.63;;;17.90;79.19
46223;BME280;31943;51.410;7.564;2023-07-28T00:38:08;99248.06;;;17.92;79.07
46223;BME280;31943;51.410;7.564;2023-07-28T00:40:35;99241.09;;;17.89;79.46
46223;BME280;31943;51.410;7.564;2023-07-28T00:43:01;99246.50;;;17.86;79.32
46223;BME280;31943;51.410;7.564;2023-07-28T00:45:27;99246.50;;;17.86;79.57
46223;BME280;31943;51.410;7.564;2023-07-28T00:47:53;99248.16;;;17.89;79.67
46223;BME280;31943;51.410;7.564;2023-07-28T00:50:21;99241.09;;;17.89;79.60
46223;BME280;31943;51.410;7.564;2023-07-28T00:52:47;99238.38;;;17.92;79.24
46223;BME280;31943;51.410;7.564;2023-07-28T00:55:12;99236.53;;;17.94;79.22
46223;BME280;31943;51.410;7.564;2023-07-28T00:57:38;99242.72;;;17.93;79.61
46223;BME280;31943;51.410;7.564;2023-07-28T01:00:05;99240.16;;;17.92;79.35
46223;BME280;31943;51.410;7.564;2023-07-28T01:02:30;99248.00;;;17.93;79.06
46223;BME280;31943;51.410;7.564;2023-07-28T01:04:56;99244.56;;;17.91;79.47
46223;BME280;31943;51.410;7.564;2023-07-28T01:07:28;99242.81;;;17.92;79.41
46223;BME280;31943;51.410;7.564;2023-07-28T01:10:00;99237.44;;;17.93;79.41
46223;BME280;31943;51.410;7.564;2023-07-28T01:12:27;99235.78;;;17.91;79.35
46223;BME280;31943;51.410;7.564;2023-07-28T01:14:52;99235.78;;;17.91;79.56
46223;BME280;31943;51.410;7.564;2023-07-28T01:17:18;99235.72;;;17.92;79.58
46223;BME280;31943;51.410;7.564;2023-07-28T01:19:44;99235.72;;;17.92;79.52
46223;BME280;31943;51.410;7.564;2023-07-28T01:22:21;99231.31;;;17.93;79.19
46223;BME280;31943;51.410;7.564;2023-07-28T01:25:02;99232.91;;;17.97;79.28
46223;BME280;31943;51.410;7.564;2023-07-28T01:27:32;99233.91;;;17.94;79.58
46223;BME280;31943;51.410;7.564;2023-07-28T01:30:00;99233.91;;;17.94;79.08
46223;BME280;31943;51.410;7.564;2023-07-28T01:32:25;99232.09;;;17.95;79.44
46223;BME280;31943;51.410;7.564;2023-07-28T01:34:51;99230.44;;;17.92;79.13
46223;BME280;31943;51.410;7.564;2023-07-28T01:37:17;99235.72;;;17.92;79.42
46223;BME280;31943;51.410;7.564;2023-07-28T01:39:43;99228.72;;;17.91;79.28
46223;BME280;31943;51.410;7.564;2023-07-28T01:42:09;99235.69;;;17.94;79.19
46223;BME280;31943;51.410;7.564;2023-07-28T01:44:36;99231.22;;;17.96;78.92
46223;BME280;31943;51.410;7.564;2023-07-28T01:47:02;99225.00;;;17.97;79.41
46223;BME280;31943;51.410;7.564;2023-07-28T01:49:28;99234.66;;;17.98;78.92
46223;BME280;31943;51.410;7.564;2023-07-28T01:51:54;99221.41;;;18.00;79.04
46223;BME280;31943;51.410;7.564;2023-07-28T01:54:19;99225.75;;;18.01;79.10
46223;BME280;31943;51.410;7.564;2023-07-28T01:56:45;99232.91;;;17.97;78.98
46223;BME280;31943;51.410;7.564;2023-07-28T01:59:11;99237.56;;;17.90;79.27
46223;BME280;31943;51.410;7.564;2023-07-28T02:01:39;99237.53;;;17.92;79.40
46223;BME280;31943;51.410;7.564;2023-07-28T02:04:06;99234.06;;;17.90;79.58
46223;BME280;31943;51.410;7.564;2023-07-28T02:06:32;99240.22;;;17.90;79.45
46223;BME280;31943;51.410;7.564;2023-07-28T02:08:57;99239.34;;;17.90;79.51
46223;BME280;31943;51.410;7.564;2023-07-28T02:11:23;99239.28;;;17.91;79.08
46223;BME280;31943;51.410;7.564;2023-07-28T02:13:49;99239.22;;;17.93;79.60
46223;BME280;31943;51.410;7.564;2023-07-28T02:16:14;99240.06;;;17.93;79.53
46223;BME280;31943;51.410;7.564;2023-07-28T02:18:41;99233.00;;;17.95;79.29
46223;BME280;31943;51.410;7.564;2023-07-28T02:21:08;99236.53;;;17.94;79.74
46223;BME280;31943;51.410;7.564;2023-07-28T02:23:33;99243.56;;;17.95;79.31
46223;BME280;31943;51.410;7.564;2023-07-28T02:25:59;99241.72;;;17.97;79.45
46223;BME280;31943;51.410;7.564;2023-07-28T02:28:25;99242.53;;;18.00;79.12
46223;BME280;31943;51.410;7.564;2023-07-28T02:30:50;99245.97;;;18.02;79.29
46223;BME280;31943;51.410;7.564;2023-07-28T02:33:16;99242.53;;;18.00;79.12
46223;BME280;31943;51.410;7.564;2023-07-28T02:35:43;99241.75;;;17.96;79.05
46223;BME280;31943;51.410;7.564;2023-07-28T02:38:09;99241.81;;;17.94;79.40
46223;BME280;31943;51.410;7.564;2023-07-28T02:40:34;99246.28;;;17.92;79.44
46223;BME280;31943;51.410;7.564;2023-07-28T02:43:00;99248.13;;;17.90;79.81
46223;BME280;31943;51.410;7.564;2023-07-28T02:45:26;99239.28;;;17.91;79.54
46223;BME280;31943;51.410;7.564;2023-07-28T02:47:52;99246.25;;;17.94;79.43
46223;BME280;31943;51.410;7.564;2023-07-28T02:50:18;99248.84;;;17.95;79.78
46223;BME280;31943;51.410;7.564;2023-07-28T02:52:45;99249.56;;;17.99;79.62
46223;BME280;31943;51.410;7.564;2023-07-28T02:55:10;99255.78;;;17.98;79.43
46223;BME280;31943;51.410;7.564;2023-07-28T02:57:37;99256.56;;;18.00;79.63
46223;BME280;31943;51.410;7.564;2023-07-28T03:00:04;99255.78;;;17.98;79.83
46223;BME280;31943;51.410;7.564;2023-07-28T03:02:30;99261.06;;;17.98;79.38
46223;BME280;31943;51.410;7.564;2023-07-28T03:04:55;99257.59;;;17.96;79.42
46223;BME280;31943;51.410;7.564;2023-07-28T03:07:21;99262.94;;;17.94;79.61
46223;BME280;31943;51.410;7.564;2023-07-28T03:09:48;99265.47;;;17.97;79.49
46223;BME280;31943;51.410;7.564;2023-07-28T03:12:14;99265.28;;;18.02;79.57
46223;BME280;31943;51.410;7.564;2023-07-28T03:14:39;99266.16;;;18.03;79.32
46223;BME280;31943;51.410;7.564;2023-07-28T03:17:05;99260.88;;;18.03;79.10
46223;BME280;31943;51.410;7.564;2023-07-28T03:19:31;99265.28;;;18.02;79.29
46223;BME280;31943;51.410;7.564;2023-07-28T03:21:57;99268.78;;;18.03;78.88
46223;BME280;31943;51.410;7.564;2023-07-28T03:24:22;99267.88;;;18.04;79.06
46223;BME280;31943;51.410;7.564;2023-07-28T03:26:49;99266.94;;;18.05;79.19
46223;BME280;31943;51.410;7.564;2023-07-28T03:29:15;99275.72;;;18.05;79.47
46223;BME280;31943;51.410;7.564;2023-07-28T03:31:40;99267.00;;;18.03;79.93
46223;BME280;31943;51.410;7.564;2023-07-28T03:34:06;99271.28;;;18.07;79.87
46223;BME280;31943;51.410;7.564;2023-07-28T03:36:32;99276.47;;;18.09;79.89
46223;BME280;31943;51.410;7.564;2023-07-28T03:38:57;99274.78;;;18.08;79.52
46223;BME280;31943;51.410;7.564;2023-07-28T03:41:23;99282.75;;;18.06;79.74
46223;BME280;31943;51.410;7.564;2023-07-28T03:43:51;99283.56;;;18.08;79.70
46223;BME280;31943;51.410;7.564;2023-07-28T03:46:17;99274.88;;;18.05;79.87
46223;BME280;31943;51.410;7.564;2023-07-28T03:48:43;99275.63;;;18.08;79.71
46223;BME280;31943;51.410;7.564;2023-07-28T03:51:09;99281.84;;;18.07;79.75
46223;BME280;31943;51.410;7.564;2023-07-28T03:53:35;99278.31;;;18.07;79.92
46223;BME280;31943;51.410;7.564;2023-07-28T03:56:02;99278.38;;;18.05;79.88
46223;BME280;31943;51.410;7.564;2023-07-28T03:58:28;99277.56;;;18.03;79.77
46223;BME280;31943;51.410;7.564;2023-07-28T04:00:57;99276.84;;;18.00;80.22
46223;BME280;31943;51.410;7.564;2023-07-28T04:03:23;99276.88;;;17.98;80.17
46223;BME280;31943;51.410;7.564;2023-07-28T04:05:49;99280.38;;;17.98;80.07
46223;BME280;31943;51.410;7.564;2023-07-28T04:08:15;99279.47;;;18.00;80.17
46223;BME280;31943;51.410;7.564;2023-07-28T04:10:41;99282.91;;;18.02;80.46
46223;BME280;31943;51.410;7.564;2023-07-28T04:13:08;99286.47;;;18.01;80.51
46223;BME280;31943;51.410;7.564;2023-07-28T04:15:33;99281.19;;;18.01;80.35
46223;BME280;31943;51.410;7.564;2023-07-28T04:18:01;99282.84;;;18.03;80.59
46223;BME280;31943;51.410;7.564;2023-07-28T04:20:27;99285.34;;;18.08;80.12
46223;BME280;31943;51.410;7.564;2023-07-28T04:22:52;99288.78;;;18.10;80.18
46223;BME280;31943;51.410;7.564;2023-07-28T04:25:18;99279.94;;;18.11;80.57
46223;BME280;31943;51.410;7.564;2023-07-28T04:27:44;99288.72;;;18.11;80.50
46223;BME280;31943;51.410;7.564;2023-07-28T04:30:10;99285.97;;;18.14;80.06
46223;BME280;31943;51.410;7.564;2023-07-28T04:32:36;99292.09;;;18.15;80.00
46223;BME280;31943;51.410;7.564;2023-07-28T04:35:05;99299.97;;;18.16;80.10
46223;BME280;31943;51.410;7.564;2023-07-28T04:37:31;99301.66;;;18.19;80.02
46223;BME280;31943;51.410;7.564;2023-07-28T04:39:58;99303.38;;;18.20;80.04
46223;BME280;31943;51.410;7.564;2023-07-28T04:42:23;99302.34;;;18.24;80.00
46223;BME280;31943;51.410;7.564;2023-07-28T04:44:50;99305.78;;;18.26;79.96
46223;BME280;31943;51.410;7.564;2023-07-28T04:47:16;99305.81;;;18.25;79.62
46223;BME280;31943;51.410;7.564;2023-07-28T04:49:43;99310.31;;;18.23;79.76
46223;BME280;31943;51.410;7.564;2023-07-28T04:52:11;99312.03;;;18.24;79.65
46223;BME280;31943;51.410;7.564;2023-07-28T04:54:38;99313.75;;;18.25;79.69
46223;BME280;31943;51.410;7.564;2023-07-28T04:57:04;99313.59;;;18.29;79.70
46223;BME280;31943;51.410;7.564;2023-07-28T04:59:31;99313.56;;;18.31;79.40
46223;BME280;31943;51.410;7.564;2023-07-28T05:01:57;99314.28;;;18.34;79.31
46223;BME280;31943;51.410;7.564;2023-07-28T05:04:23;99314.88;;;18.43;79.29
46223;BME280;31943;51.410;7.564;2023-07-28T05:06:48;99307.56;;;18.49;79.25
46223;BME280;31943;51.410;7.564;2023-07-28T05:09:16;99305.69;;;18.53;78.82
46223;BME280;31943;51.410;7.564;2023-07-28T05:11:42;99309.38;;;18.49;78.77
46223;BME280;31943;51.410;7.564;2023-07-28T05:14:08;99308.44;;;18.50;79.08
46223;BME280;31943;51.410;7.564;2023-07-28T05:16:36;99317.09;;;18.53;78.88
46223;BME280;31943;51.410;7.564;2023-07-28T05:19:04;99316.91;;;18.58;78.92
46223;BME280;31943;51.410;7.564;2023-07-28T05:21:30;99308.88;;;18.61;78.95
46223;BME280;31943;51.410;7.564;2023-07-28T05:23:58;99313.94;;;18.67;79.17
46223;BME280;31943;51.410;7.564;2023-07-28T05:26:26;99306.81;;;18.69;78.92
46223;BME280;31943;51.410;7.564;2023-07-28T05:28:52;99304.81;;;18.76;78.56
46223;BME280;31943;51.410;7.564;2023-07-28T05:31:18;99307.31;;;18.79;78.37
46223;BME280;31943;51.410;7.564;2023-07-28T05:33:44;99309.97;;;18.79;78.64
46223;BME280;31943;51.410;7.564;2023-07-28T05:36:09;99313.50;;;18.80;78.49
46223;BME280;31943;51.410;7.564;2023-07-28T05:38:35;99317.88;;;18.81;78.75
46223;BME280;31943;51.410;7.564;2023-07-28T05:41:01;99320.47;;;18.82;78.93
46223;BME280;31943;51.410;7.564;2023-07-28T05:43:29;99310.69;;;18.84;78.68
46223;BME280;31943;51.410;7.564;2023-07-28T05:45:55;99309.75;;;18.85;78.79
46223;BME280;31943;51.410;7.564;2023-07-28T05:48:21;99313.28;;;18.86;78.54
46223;BME280;31943;51.410;7.564;2023-07-28T05:50:47;99319.47;;;18.85;78.80
46223;BME280;31943;51.410;7.564;2023-07-28T05:53:13;99328.34;;;18.84;78.68
46223;BME280;31943;51.410;7.564;2023-07-28T05:55:40;99332.69;;;18.85;78.51
46223;BME280;31943;51.410;7.564;2023-07-28T05:58:05;99335.28;;;18.86;78.42
46223;BME280;31943;51.410;7.564;2023-07-28T06:00:33;99329.19;;;18.84;78.49
46223;BME280;31943;51.410;7.564;2023-07-28T06:03:00;99333.69;;;18.82;78.88
46223;BME280;31943;51.410;7.564;2023-07-28T06:05:26;99340.56;;;18.86;78.92
46223;BME280;31943;51.410;7.564;2023-07-28T06:07:52;99341.41;;;18.87;78.77
46223;BME280;31943;51.410;7.564;2023-07-28T06:10:18;99339.72;;;18.86;78.46
46223;BME280;31943;51.410;7.564;2023-07-28T06:12:43;99344.91;;;18.87;79.03
46223;BME280;31943;51.410;7.564;2023-07-28T06:15:10;99348.34;;;18.89;78.62
46223;BME280;31943;51.410;7.564;2023-07-28T06:17:39;99330.59;;;18.93;78.76
46223;BME280;31943;51.410;7.564;2023-07-28T06:20:07;99338.44;;;18.96;78.93
46223;BME280;31943;51.410;7.564;2023-07-28T06:22:34;99340.72;;;19.05;78.60
46223;BME280;31943;51.410;7.564;2023-07-28T06:25:00;99344.88;;;19.11;78.37
46223;BME280;31943;51.410;7.564;2023-07-28T06:27:25;99352.66;;;19.15;78.40
46223;BME280;31943;51.410;7.564;2023-07-28T06:29:52;99351.47;;;19.23;78.40
46223;BME280;31943;51.410;7.564;2023-07-28T06:32:17;99357.44;;;19.28;78.25
46223;BME280;31943;51.410;7.564;2023-07-28T06:34:45;99357.19;;;19.34;78.30
46223;BME280;31943;51.410;7.564;2023-07-28T06:37:12;99358.03;;;19.34;78.21
46223;BME280;31943;51.410;7.564;2023-07-28T06:39:38;99374.00;;;19.33;77.79
46223;BME280;31943;51.410;7.564;2023-07-28T06:42:04;99358.84;;;19.36;78.15
46223;BME280;31943;51.410;7.564;2023-07-28T06:44:30;99370.16;;;19.40;77.96
46223;BME280;31943;51.410;7.564;2023-07-28T06:46:56;99366.63;;;19.41;77.50
46223;BME280;31943;51.410;7.564;2023-07-28T06:49:22;99371.84;;;19.43;77.37
46223;BME280;31943;51.410;7.564;2023-07-28T06:51:49;99381.56;;;19.42;77.28
46223;BME280;31943;51.410;7.564;2023-07-28T06:54:16;99385.88;;;19.45;77.75
46223;BME280;31943;51.410;7.564;2023-07-28T06:56:42;99382.13;;;19.50;77.72
46223;BME280;31943;51.410;7.564;2023-07-28T06:59:08;99389.06;;;19.53;77.76
46223;BME280;31943;51.410;7.564;2023-07-28T07:01:34;99396.00;;;19.55;77.90
46223;BME280;31943;51.410;7.564;2023-07-28T07:04:00;99393.41;;;19.54;77.75
46223;BME280;31943;51.410;7.564;2023-07-28T07:06:26;99395.09;;;19.56;77.51
46223;BME280;31943;51.410;7.564;2023-07-28T07:08:54;99406.53;;;19.57;77.19
46223;BME280;31943;51.410;7.564;2023-07-28T07:11:19;99411.78;;;19.59;77.34
46223;BME280;31943;51.410;7.564;2023-07-28T07:13:45;99408.09;;;19.63;77.48
46223;BME280;31943;51.410;7.564;2023-07-28T07:16:13;99409.63;;;19.68;77.48
46223;BME280;31943;51.410;7.564;2023-07-28T07:18:40;99412.09;;;19.73;77.26
46223;BME280;31943;51.410;7.564;2023-07-28T07:21:06;99411.28;;;19.71;77.38
46223;BME280;31943;51.410;7.564;2023-07-28T07:23:32;99408.47;;;19.75;77.26
46223;BME280;31943;51.410;7.564;2023-07-28T07:25:59;99412.66;;;19.81;77.17
46223;BME280;31943;51.410;7.564;2023-07-28T07:28:25;99414.13;;;19.88;77.57
46223;BME280;31943;51.410;7.564;2023-07-28T07:30:51;99413.97;;;19.91;76.97
46223;BME280;31943;51.410;7.564;2023-07-28T07:33:16;99420.22;;;19.90;76.77
46223;BME280;31943;51.410;7.564;2023-07-28T07:35:42;99427.41;;;19.87;76.77
46223;BME280;31943;51.410;7.564;2023-07-28T07:38:09;99426.13;;;19.75;76.50
46223;BME280;31943;51.410;7.564;2023-07-28T07:40:35;99411.91;;;19.78;76.86
46223;BME280;31943;51.410;7.564;2023-07-28T07:43:05;99429.22;;;19.86;76.70
46223;BME280;31943;51.410;7.564;2023-07-28T07:45:31;99422.84;;;19.90;76.71
46223;BME280;31943;51.410;7.564;2023-07-28T07:47:57;99427.38;;;20.09;76.40
46223;BME280;31943;51.410;7.564;2023-07-28T07:50:25;99422.38;;;20.23;75.83
46223;BME280;31943;51.410;7.564;2023-07-28T07:52:50;99428.19;;;20.31;75.93
46223;BME280;31943;51.410;7.564;2023-07-28T07:55:16;99427.00;;;20.39;75.67
46223;BME280;31943;51.410;7.564;2023-07-28T07:57:42;99418.50;;;20.51;75.47
46223;BME280;31943;51.410;7.564;2023-07-28T08:00:13;99416.72;;;20.51;75.43
46223;BME280;31943;51.410;7.564;2023-07-28T08:02:40;99420.78;;;20.40;75.14
46223;BME280;31943;51.410;7.564;2023-07-28T08:05:06;99421.84;;;20.35;75.12
46223;BME280;31943;51.410;7.564;2023-07-28T08:07:32;99423.41;;;20.40;74.08
46223;BME280;31943;51.410;7.564;2023-07-28T08:09:58;99420.94;;;20.55;74.46
46223;BME280;31943;51.410;7.564;2023-07-28T08:12:23;99417.94;;;20.65;73.75
46223;BME280;31943;51.410;7.564;2023-07-28T08:14:50;99425.72;;;20.68;73.74
46223;BME280;31943;51.410;7.564;2023-07-28T08:17:18;99426.63;;;20.68;73.94
46223;BME280;31943;51.410;7.564;2023-07-28T08:19:44;99431.03;;;20.68;73.30
46223;BME280;31943;51.410;7.564;2023-07-28T08:22:09;99427.81;;;20.61;73.16
46223;BME280;31943;51.410;7.564;2023-07-28T08:24:35;99436.34;;;20.68;73.43
46223;BME280;31943;51.410;7.564;2023-07-28T08:27:01;99436.94;;;20.74;73.44
46223;BME280;31943;51.410;7.564;2023-07-28T08:29:26;99448.00;;;20.84;72.93
46223;BME280;31943;51.410;7.564;2023-07-28T08:31:52;99438.97;;;20.88;73.22
46223;BME280;31943;51.410;7.564;2023-07-28T08:34:19;99438.13;;;20.88;72.94
46223;BME280;31943;51.410;7.564;2023-07-28T08:36:45;99443.41;;;20.88;72.70
46223;BME280;31943;51.410;7.564;2023-07-28T08:39:11;99447.38;;;20.78;71.88
46223;BME280;31943;51.410;7.564;2023-07-28T08:41:38;99452.56;;;20.81;72.60
46223;BME280;31943;51.410;7.564;2023-07-28T08:44:04;99453.56;;;20.78;72.98
46223;BME280;31943;51.410;7.564;2023-07-28T08:46:30;99458.00;;;20.78;72.99
46223;BME280;31943;51.410;7.564;2023-07-28T08:48:56;99455.28;;;20.79;72.16
46223;BME280;31943;51.410;7.564;2023-07-28T08:51:23;99456.69;;;20.88;72.35
46223;BME280;31943;51.410;7.564;2023-07-28T08:53:49;99452.72;;;20.97;72.13
46223;BME280;31943;51.410;7.564;2023-07-28T08:56:15;99458.47;;;21.06;72.02
46223;BME280;31943;51.410;7.564;2023-07-28T08:58:41;99468.75;;;21.14;72.41
46223;BME280;31943;51.410;7.564;2023-07-28T09:01:07;99468.63;;;21.17;71.74
46223;BME280;31943;51.410;7.564;2023-07-28T09:03:33;99473.13;;;21.15;71.76
46223;BME280;31943;51.410;7.564;2023-07-28T09:06:01;99477.44;;;21.18;71.61
46223;BME280;31943;51.410;7.564;2023-07-28T09:08:32;99475.63;;;21.18;71.38
46223;BME280;31943;51.410;7.564;2023-07-28T09:11:02;99478.06;;;21.23;71.57
46223;BME280;31943;51.410;7.564;2023-07-28T09:13:36;99477.88;;;21.27;71.15
46223;BME280;31943;51.410;7.564;2023-07-28T09:16:03;99476.91;;;21.28;70.72
46223;BME280;31943;51.410;7.564;2023-07-28T09:18:29;99476.91;;;21.28;70.86
46223;BME280;31943;51.410;7.564;2023-07-28T09:20:55;99481.88;;;21.36;70.93
46223;BME280;31943;51.410;7.564;2023-07-28T09:23:28;99481.56;;;21.42;70.30
46223;BME280;31943;51.410;7.564;2023-07-28T09:26:00;99487.56;;;21.47;70.38
46223;BME280;31943;51.410;7.564;2023-07-28T09:28:36;99481.13;;;21.53;70.69
46223;BME280;31943;51.410;7.564;2023-07-28T09:31:04;99480.16;;;21.54;70.49
46223;BME280;31943;51.410;7.564;2023-07-28T09:33:30;99481.19;;;21.51;69.64
46223;BME280;31943;51.410;7.564;2023-07-28T09:35:56;99479.25;;;21.55;70.16
46223;BME280;31943;51.410;7.564;2023-07-28T09:38:22;99484.19;;;21.63;69.81
46223;BME280;31943;51.410;7.564;2023-07-28T09:40:50;99480.09;;;21.75;70.40
46223;BME280;31943;51.410;7.564;2023-07-28T09:43:18;99486.22;;;21.94;69.91
46223;BME280;31943;51.410;7.564;2023-07-28T09:45:44;99480.38;;;22.05;69.55
46223;BME280;31943;51.410;7.564;2023-07-28T09:48:11;99482.97;;;22.06;69.10
46223;BME280;31943;51.410;7.564;2023-07-28T09:50:40;99480.47;;;22.03;68.24
46223;BME280;31943;51.410;7.564;2023-07-28T09:53:09;99482.81;;;22.09;67.77
46223;BME280;31943;51.410;7.564;2023-07-28T09:55:36;99476.41;;;22.14;67.85
46223;BME280;31943;51.410;7.564;2023-07-28T09:58:05;99477.13;;;22.17;67.80
46223;BME280;31943;51.410;7.564;2023-07-28T10:00:36;99475.44;;;22.34;67.22
46223;BME280;31943;51.410;7.564;2023-07-28T10:03:03;99484.91;;;22.39;66.75
46223;BME280;31943;51.410;7.564;2023-07-28T10:05:30;99474.41;;;22.54;66.74
46223;BME280;31943;51.410;7.564;2023-07-28T10:07:57;99484.38;;;22.83;66.09
46223;BME280;31943;51.410;7.564;2023-07-28T10:10:23;99473.88;;;22.98;65.58
46223;BME280;31943;51.410;7.564;2023-07-28T10:12:50;99481.94;;;22.96;65.42
46223;BME280;31943;51.410;7.564;2023-07-28T10:15:18;99479.69;;;22.88;65.80
46223;BME280;31943;51.410;7.564;2023-07-28T10:17:47;99488.31;;;22.76;65.85
46223;BME280;31943;51.410;7.564;2023-07-28T10:20:29;99493.84;;;22.71;66.12
46223;BME280;31943;51.410;7.564;2023-07-28T10:23:02;99494.50;;;22.59;66.19
46223;BME280;31943;51.410;7.564;2023-07-28T10:25:34;99496.25;;;22.43;66.00
46223;BME280;31943;51.410;7.564;2023-07-28T10:28:00;99505.38;;;22.37;66.03
46223;BME280;31943;51.410;7.564;2023-07-28T10:30:26;99504.44;;;22.56;66.05
46223;BME280;31943;51.410;7.564;2023-07-28T10:32:55;99506.16;;;22.74;65.18
46223;BME280;31943;51.410;7.564;2023-07-28T10:35:25;99501.75;;;22.90;64.14
46223;BME280;31943;51.410;7.564;2023-07-28T10:37:53;99506.50;;;23.01;64.01
46223;BME280;31943;51.410;7.564;2023-07-28T10:40:37;99515.34;;;23.02;63.97
46223;BME280;31943;51.410;7.564;2023-07-28T10:43:04;99509.47;;;22.95;64.21
46223;BME280;31943;51.410;7.564;2023-07-28T10:45:31;99510.75;;;23.05;64.00
46223;BME280;31943;51.410;7.564;2023-07-28T10:48:00;99511.00;;;23.17;63.86
46223;BME280;31943;51.410;7.564;2023-07-28T10:50:27;99521.16;;;23.10;64.26
46223;BME280;31943;51.410;7.564;2023-07-28T10:52:53;99523.53;;;22.97;64.46
46223;BME280;31943;51.410;7.564;2023-07-28T10:55:21;99526.25;;;22.80;64.86
46223;BME280;31943;51.410;7.564;2023-07-28T10:57:50;99530.50;;;22.66;64.67
46223;BME280;31943;51.410;7.564;2023-07-28T11:00:18;99529.63;;;22.66;64.93
46223;BME280;31943;51.410;7.564;2023-07-28T11:02:47;99524.31;;;22.66;65.14
46223;BME280;31943;51.410;7.564;2023-07-28T11:05:20;99529.91;;;22.60;65.26
46223;BME280;31943;51.410;7.564;2023-07-28T11:07:46;99526.66;;;22.55;65.24
46223;BME280;31943;51.410;7.564;2023-07-28T11:10:12;99528.22;;;22.41;65.66
46223;BME280;31943;51.410;7.564;2023-07-28T11:12:41;99529.22;;;22.39;65.80
46223;BME280;31943;51.410;7.564;2023-07-28T11:15:09;99537.22;;;22.39;65.54
46223;BME280;31943;51.410;7.564;2023-07-28T11:17:36;99529.63;;;22.66;65.20
46223;BME280;31943;51.410;7.564;2023-07-28T11:20:02;99527.75;;;22.68;64.96
46223;BME280;31943;51.410;7.564;2023-07-28T11:22:31;99529.38;;;22.88;64.07
46223;BME280;31943;51.410;7.564;2023-07-28T11:24:57;99534.28;;;22.96;63.64
46223;BME280;31943;51.410;7.564;2023-07-28T11:27:24;99523.47;;;22.99;63.80
46223;BME280;31943;51.410;7.564;2023-07-28T11:29:50;99518.75;;;23.05;64.17
46223;BME280;31943;51.410;7.564;2023-07-28T11:32:16;99519.00;;;23.17;63.00
46223;BME280;31943;51.410;7.564;2023-07-28T11:34:44;99517.41;;;23.30;63.17
46223;BME280;31943;51.410;7.564;2023-07-28T11:37:10;99515.22;;;23.54;63.51
46223;BME280;31943;51.410;7.564;2023-07-28T11:39:38;99523.94;;;23.90;62.18
46223;BME280;31943;51.410;7.564;2023-07-28T11:42:08;99520.22;;;23.92;61.29
46223;BME280;31943;51.410;7.564;2023-07-28T11:44:35;99527.19;;;23.79;61.16
46223;BME280;31943;51.410;7.564;2023-07-28T11:47:05;99526.81;;;23.69;61.39
46223;BME280;31943;51.410;7.564;2023-07-28T11:49:33;99531.88;;;23.58;61.71
46223;BME280;31943;51.410;7.564;2023-07-28T11:51:59;99527.31;;;23.60;61.50
46223;BME280;31943;51.410;7.564;2023-07-28T11:54:26;99523.09;;;23.72;61.67
46223;BME280;31943;51.410;7.564;2023-07-28T11:56:55;99529.03;;;23.77;61.77
46223;BME280;31943;51.410;7.564;2023-07-28T11:59:21;99525.81;;;23.87;61.29
46223;BME280;31943;51.410;7.564;2023-07-28T12:01:54;99530.19;;;23.88;60.28
46223;BME280;31943;51.410;7.564;2023-07-28T12:04:20;99530.16;;;23.73;60.84
46223;BME280;31943;51.410;7.564;2023-07-28T12:07:07;99526.66;;;23.72;61.28
46223;BME280;31943;51.410;7.564;2023-07-28T12:09:47;99526.81;;;23.69;60.94
46223;BME280;31943;51.410;7.564;2023-07-28T12:12:17;99524.00;;;23.72;60.87
46223;BME280;31943;51.410;7.564;2023-07-28T12:14:44;99524.84;;;23.73;60.87
46223;BME280;31943;51.410;7.564;2023-07-28T12:17:12;99519.94;;;23.65;60.46
46223;BME280;31943;51.410;7.564;2023-07-28T12:19:40;99521.56;;;23.67;60.32
46223;BME280;31943;51.410;7.564;2023-07-28T12:22:06;99513.44;;;23.86;59.48
46223;BME280;31943;51.410;7.564;2023-07-28T12:24:33;99509.06;;;24.01;60.10
46223;BME280;31943;51.410;7.564;2023-07-28T12:26:59;99514.41;;;24.32;58.80
46223;BME280;31943;51.410;7.564;2023-07-28T12:29:26;99507.09;;;24.65;58.18
46223;BME280;31943;51.410;7.564;2023-07-28T12:31:53;99513.03;;;24.85;58.56
46223;BME280;31943;51.410;7.564;2023-07-28T12:34:19;99507.81;;;25.12;57.35
46223;BME280;31943;51.410;7.564;2023-07-28T12:36:44;99512.69;;;25.34;56.98
46223;BME280;31943;51.410;7.564;2023-07-28T12:39:12;99514.97;;;25.55;57.55
46223;BME280;31943;51.410;7.564;2023-07-28T12:41:38;99510.28;;;25.44;56.92
46223;BME280;31943;51.410;7.564;2023-07-28T12:44:04;99504.19;;;25.42;56.85
46223;BME280;31943;51.410;7.564;2023-07-28T12:46:31;99499.91;;;25.81;56.29
46223;BME280;31943;51.410;7.564;2023-07-28T12:49:02;99509.72;;;26.09;53.67
46223;BME280;31943;51.410;7.564;2023-07-28T12:51:27;99505.59;;;26.31;54.02
46223;BME280;31943;51.410;7.564;2023-07-28T12:53:53;99500.63;;;26.24;52.74
46223;BME280;31943;51.410;7.564;2023-07-28T12:56:19;99495.53;;;26.34;52.83
46223;BME280;31943;51.410;7.564;2023-07-28T12:58:44;99506.63;;;26.15;54.02